Time,TemperatureF,DewpointF,PressureIn,WindDirection,WindDirectionDegrees,WindSpeedMPH,WindSpeedGustMPH,Humidity,HourlyPrecipIn,Conditions,Clouds,dailyrainin,SolarRadiationWatts/m^2,SoftwareType,DateUTC
2016-02-14 00:09:00,3.1,-2.8,30.45,NW,311,0.0,0.0,76,0.00,,,0.00,0,Wunderground v.1.15,2016-02-14 05:09:00,
2016-02-14 00:14:00,3.2,-2.7,30.45,NW,311,0.0,0.0,76,0.00,,,0.00,0,Wunderground v.1.15,2016-02-14 05:14:00,
2016-02-14 00:24:00,3.2,-2.7,30.45,NW,312,0.0,0.0,76,0.00,,,0.00,0,Wunderground v.1.15,2016-02-14 05:24:00,
2016-02-14 00:34:00,3.1,-2.5,30.45,NW,311,0.0,0.0,77,0.00,,,0.00,0,Wunderground v.1.15,2016-02-14 05:34:00,
2016-02-14 00:44:00,3.0,-2.6,30.44,NW,312,0.0,0.0,77,0.00,,,0.00,0,Wunderground v.1.15,2016-02-14 05:44:00,
2016-02-14 00:54:00,2.8,-2.8,30.44,NW,311,0.0,0.0,77,0.00,,,0.00,0,Wunderground v.1.15,2016-02-14 05:54:00,
2016-02-14 00:59:00,2.6,-3.2,30.44,NW,311,0.0,0.0,76,0.00,,,0.00,0,Wunderground v.1.15,2016-02-14 05:59:00,
2016-02-14 01:04:00,2.6,-3.0,30.44,NW,311,0.0,0.0,77,0.00,,,0.00,0,Wunderground v.1.15,2016-02-14 06:04:00,
2016-02-14 01:14:00,2.2,-3.4,30.44,NW,312,0.0,0.0,77,0.00,,,0.00,0,Wunderground v.1.15,2016-02-14 06:14:00,
2016-02-14 01:29:00,2.0,-3.6,30.45,NW,311,0.0,0.0,77,0.00,,,0.00,0,Wunderground v.1.15,2016-02-14 06:29:00,
2016-02-14 01:39:00,1.9,-3.7,30.45,NW,311,0.0,0.0,77,0.00,,,0.00,0,Wunderground v.1.15,2016-02-14 06:39:00,
2016-02-14 01:49:00,1.8,-3.7,30.44,NW,311,0.0,0.0,77,0.00,,,0.00,0,Wunderground v.1.15,2016-02-14 06:49:00,
2016-02-14 01:54:00,1.8,-3.7,30.44,NW,311,0.0,0.0,77,0.00,,,0.00,0,Wunderground v.1.15,2016-02-14 06:54:00,
2016-02-14 02:04:00,2.0,-3.6,30.44,NW,311,0.0,0.0,77,0.00,,,0.00,0,Wunderground v.1.15,2016-02-14 07:04:00,
2016-02-14 02:14:00,1.8,-3.7,30.45,NW,311,0.0,0.0,77,0.00,,,0.00,0,Wunderground v.1.15,2016-02-14 07:14:00,
2016-02-14 02:24:00,1.8,-3.7,30.45,NW,311,0.0,0.0,77,0.00,,,0.00,0,Wunderground v.1.15,2016-02-14 07:24:00,
2016-02-14 02:29:00,1.6,-3.7,30.45,NW,311,0.0,0.0,78,0.00,,,0.00,0,Wunderground v.1.15,2016-02-14 07:29:00,
2016-02-14 02:39:00,1.6,-3.9,30.45,NW,311,0.0,0.0,77,0.00,,,0.00,0,Wunderground v.1.15,2016-02-14 07:39:00,
2016-02-14 02:49:00,1.6,-3.9,30.45,NW,311,0.0,0.0,77,0.00,,,0.00,0,Wunderground v.1.15,2016-02-14 07:49:00,
2016-02-14 02:59:00,1.6,-3.9,30.45,NW,311,0.0,0.0,77,0.00,,,0.00,0,Wunderground v.1.15,2016-02-14 07:59:00,
2016-02-14 03:09:00,1.4,-4.1,30.45,NW,311,0.0,0.0,77,0.00,,,0.00,0,Wunderground v.1.15,2016-02-14 08:09:00,
2016-02-14 03:19:00,1.4,-3.9,30.45,NW,311,0.0,0.0,78,0.00,,,0.00,0,Wunderground v.1.15,2016-02-14 08:19:00,
2016-02-14 03:29:00,1.3,-4.2,30.45,NW,311,0.0,0.0,77,0.00,,,0.00,0,Wunderground v.1.15,2016-02-14 08:29:00,
2016-02-14 03:39:00,1.3,-4.2,30.46,NW,311,0.0,0.0,77,0.00,,,0.00,0,Wunderground v.1.15,2016-02-14 08:39:00,
2016-02-14 03:44:00,1.1,-4.4,30.46,NW,311,0.0,0.0,77,0.00,,,0.00,0,Wunderground v.1.15,2016-02-14 08:44:00,
2016-02-14 03:54:00,1.2,-4.3,30.45,NW,311,0.0,0.0,77,0.00,,,0.00,0,Wunderground v.1.15,2016-02-14 08:54:00,
2016-02-14 04:04:00,1.1,-4.4,30.46,NW,311,0.0,0.0,77,0.00,,,0.00,0,Wunderground v.1.15,2016-02-14 09:04:00,
2016-02-14 04:14:00,0.8,-4.7,30.46,NW,311,0.0,0.0,77,0.00,,,0.00,0,Wunderground v.1.15,2016-02-14 09:14:00,
2016-02-14 04:19:00,0.7,-4.8,30.46,NW,311,0.0,0.0,77,0.00,,,0.00,0,Wunderground v.1.15,2016-02-14 09:19:00,
2016-02-14 04:29:00,0.4,-5.1,30.45,NW,311,0.0,0.0,77,0.00,,,0.00,0,Wunderground v.1.15,2016-02-14 09:29:00,
2016-02-14 04:39:00,0.1,-5.4,30.45,NW,311,0.0,0.0,77,0.00,,,0.00,0,Wunderground v.1.15,2016-02-14 09:39:00,
2016-02-14 04:54:00,0.2,-5.0,30.44,NW,311,0.0,0.0,78,0.00,,,0.00,0,Wunderground v.1.15,2016-02-14 09:54:00,
2016-02-14 05:04:00,0.1,-5.4,30.45,NW,311,0.0,0.0,77,0.00,,,0.00,0,Wunderground v.1.15,2016-02-14 10:04:00,
2016-02-14 05:14:00,-0.1,-5.3,30.44,NW,311,0.0,0.0,78,0.00,,,0.00,0,Wunderground v.1.15,2016-02-14 10:14:00,
2016-02-14 05:24:00,-0.1,-5.3,30.44,NW,311,0.0,0.0,78,0.00,,,0.00,0,Wunderground v.1.15,2016-02-14 10:24:00,
2016-02-14 05:34:00,-0.5,-6.0,30.44,NW,312,0.0,0.0,77,0.00,,,0.00,0,Wunderground v.1.15,2016-02-14 10:34:00,
2016-02-14 05:44:00,-0.7,-5.9,30.44,NW,312,0.0,0.0,78,0.00,,,0.00,0,Wunderground v.1.15,2016-02-14 10:44:00,
2016-02-14 05:54:00,-0.7,-5.9,30.44,NW,311,0.0,0.0,78,0.00,,,0.00,0,Wunderground v.1.15,2016-02-14 10:54:00,
2016-02-14 05:59:00,-0.7,-6.2,30.44,NW,312,0.0,0.0,77,0.00,,,0.00,0,Wunderground v.1.15,2016-02-14 10:59:00,
2016-02-14 06:09:00,-0.5,-6.0,30.44,NW,311,0.0,0.0,77,0.00,,,0.00,0,Wunderground v.1.15,2016-02-14 11:09:00,
2016-02-14 06:19:00,-0.7,-5.9,30.43,NW,311,0.0,0.0,78,0.00,,,0.00,0,Wunderground v.1.15,2016-02-14 11:19:00,
2016-02-14 06:39:00,-0.7,-6.2,30.43,NW,311,0.0,0.0,77,0.00,,,0.00,0,Wunderground v.1.15,2016-02-14 11:39:00,
2016-02-14 06:49:00,-0.9,-6.4,30.43,NW,311,0.0,0.0,77,0.00,,,0.00,0,Wunderground v.1.15,2016-02-14 11:49:00,
2016-02-14 06:54:00,-0.9,-6.4,30.43,NW,311,0.0,0.0,77,0.00,,,0.00,0,Wunderground v.1.15,2016-02-14 11:54:00,
2016-02-14 07:04:00,-1.1,-6.6,30.43,NW,311,0.0,0.0,77,0.00,,,0.00,0,Wunderground v.1.15,2016-02-14 12:04:00,
2016-02-14 07:14:00,-1.1,-6.6,30.43,NW,311,0.0,0.0,77,0.00,,,0.00,0,Wunderground v.1.15,2016-02-14 12:14:00,
2016-02-14 07:24:00,-1.1,-6.6,30.43,NW,311,0.0,0.0,77,0.00,,,0.00,0,Wunderground v.1.15,2016-02-14 12:24:00,
2016-02-14 07:39:00,-1.3,-6.5,30.43,NW,311,0.0,0.0,78,0.00,,,0.00,0,Wunderground v.1.15,2016-02-14 12:39:00,
2016-02-14 07:49:00,-1.3,-6.8,30.43,NW,311,0.0,0.0,77,0.00,,,0.00,0,Wunderground v.1.15,2016-02-14 12:49:00,
2016-02-14 07:54:00,-1.3,-6.5,30.43,NW,311,0.0,0.0,78,0.00,,,0.00,0,Wunderground v.1.15,2016-02-14 12:54:00,
2016-02-14 07:59:00,-1.3,-6.8,30.43,NW,311,0.0,0.0,77,0.00,,,0.00,0,Wunderground v.1.15,2016-02-14 12:59:00,
2016-02-14 08:09:00,-0.9,-6.1,30.44,NW,311,0.0,0.0,78,0.00,,,0.00,0,Wunderground v.1.15,2016-02-14 13:09:00,
2016-02-14 08:14:00,-0.3,-5.3,30.44,NW,311,0.0,0.0,79,0.00,,,0.00,0,Wunderground v.1.15,2016-02-14 13:14:00,
2016-02-14 08:24:00,1.7,-3.0,30.45,NW,311,0.0,0.0,80,0.00,,,0.00,0,Wunderground v.1.15,2016-02-14 13:24:00,
2016-02-14 08:34:00,2.9,-1.9,30.44,NW,311,0.0,0.0,80,0.00,,,0.00,0,Wunderground v.1.15,2016-02-14 13:34:00,
2016-02-14 08:44:00,4.1,-0.4,30.44,NW,311,0.0,0.0,81,0.00,,,0.00,0,Wunderground v.1.15,2016-02-14 13:44:00,
2016-02-14 08:59:00,6.5,2.2,30.44,NW,312,0.0,0.0,82,0.00,,,0.00,0,Wunderground v.1.15,2016-02-14 13:59:00,
2016-02-14 09:09:00,7.9,3.5,30.44,ESE,105,3.0,3.0,82,0.00,,,0.00,0,Wunderground v.1.15,2016-02-14 14:09:00,
2016-02-14 09:19:00,9.7,5.6,30.44,SE,127,1.0,1.0,83,0.00,,,0.00,0,Wunderground v.1.15,2016-02-14 14:19:00,
2016-02-14 09:29:00,10.4,5.5,30.44,ESE,103,4.0,4.0,80,0.00,,,0.00,0,Wunderground v.1.15,2016-02-14 14:29:00,
2016-02-14 09:49:00,11.8,5.4,30.44,South,176,0.0,1.0,75,0.00,,,0.00,0,Wunderground v.1.15,2016-02-14 14:49:00,
2016-02-14 09:59:00,12.4,4.8,30.43,East,84,5.0,5.0,71,0.00,,,0.00,0,Wunderground v.1.15,2016-02-14 14:59:00,
2016-02-14 10:09:00,12.4,3.5,30.43,East,82,3.0,4.0,67,0.00,,,0.00,0,Wunderground v.1.15,2016-02-14 15:09:00,
2016-02-14 10:14:00,12.8,3.9,30.43,ESE,105,4.0,4.0,67,0.00,,,0.00,0,Wunderground v.1.15,2016-02-14 15:14:00,
2016-02-14 10:19:00,13.1,3.5,30.43,East,80,4.0,4.0,65,0.00,,,0.00,0,Wunderground v.1.15,2016-02-14 15:19:00,
2016-02-14 10:24:00,13.4,3.8,30.43,South,187,8.0,8.0,65,0.00,,,0.00,0,Wunderground v.1.15,2016-02-14 15:24:00,
2016-02-14 10:34:00,14.2,3.9,30.42,SSE,165,6.0,6.0,63,0.00,,,0.00,0,Wunderground v.1.15,2016-02-14 15:34:00,
2016-02-14 10:39:00,14.2,3.6,30.42,East,99,5.0,6.0,62,0.00,,,0.00,0,Wunderground v.1.15,2016-02-14 15:39:00,
2016-02-14 10:44:00,14.2,3.6,30.42,ESE,105,8.0,8.0,62,0.00,,,0.00,0,Wunderground v.1.15,2016-02-14 15:44:00,
2016-02-14 10:49:00,14.4,3.4,30.41,East,97,9.0,9.0,61,0.00,,,0.00,0,Wunderground v.1.15,2016-02-14 15:49:00,
2016-02-14 10:59:00,14.4,3.4,30.41,SE,134,6.0,10.0,61,0.00,,,0.00,0,Wunderground v.1.15,2016-02-14 15:59:00,
2016-02-14 11:09:00,14.3,3.3,30.41,ESE,116,4.0,7.0,61,0.00,,,0.00,0,Wunderground v.1.15,2016-02-14 16:09:00,
2016-02-14 11:14:00,14.2,2.8,30.40,SE,132,5.0,5.0,60,0.00,,,0.00,0,Wunderground v.1.15,2016-02-14 16:14:00,
2016-02-14 11:24:00,14.1,3.5,30.40,East,94,9.0,9.0,62,0.00,,,0.00,0,Wunderground v.1.15,2016-02-14 16:24:00,
2016-02-14 11:29:00,14.2,3.6,30.40,ESE,116,8.0,9.0,62,0.00,,,0.00,0,Wunderground v.1.15,2016-02-14 16:29:00,
2016-02-14 11:39:00,14.2,3.2,30.40,SSE,155,6.0,9.0,61,0.00,,,0.00,0,Wunderground v.1.15,2016-02-14 16:39:00,
2016-02-14 11:44:00,14.4,3.7,30.39,ESE,106,6.0,6.0,62,0.00,,,0.00,0,Wunderground v.1.15,2016-02-14 16:44:00,
2016-02-14 11:54:00,15.2,3.8,30.38,East,86,7.0,7.0,60,0.00,,,0.00,0,Wunderground v.1.15,2016-02-14 16:54:00,
2016-02-14 12:04:00,15.2,3.1,30.37,ESE,118,5.0,5.0,58,0.00,,,0.00,0,Wunderground v.1.15,2016-02-14 17:04:00,
2016-02-14 12:09:00,15.2,3.1,30.37,SSE,162,11.0,11.0,58,0.00,,,0.00,0,Wunderground v.1.15,2016-02-14 17:09:00,
2016-02-14 12:19:00,15.5,3.3,30.36,ESE,115,4.0,6.0,58,0.00,,,0.00,0,Wunderground v.1.15,2016-02-14 17:19:00,
2016-02-14 12:24:00,15.6,3.4,30.36,SE,140,13.0,13.0,58,0.00,,,0.00,0,Wunderground v.1.15,2016-02-14 17:24:00,
2016-02-14 12:34:00,14.9,3.1,30.36,ESE,114,2.0,2.0,59,0.00,,,0.00,0,Wunderground v.1.15,2016-02-14 17:34:00,
2016-02-14 12:39:00,14.7,2.9,30.35,East,89,9.0,9.0,59,0.00,,,0.00,0,Wunderground v.1.15,2016-02-14 17:39:00,
2016-02-14 12:44:00,14.9,3.5,30.35,SE,130,4.0,4.0,60,0.00,,,0.00,0,Wunderground v.1.15,2016-02-14 17:44:00,
2016-02-14 12:49:00,15.0,3.6,30.35,SE,142,5.0,5.0,60,0.00,,,0.00,0,Wunderground v.1.15,2016-02-14 17:49:00,
2016-02-14 12:54:00,15.2,3.8,30.35,East,86,5.0,5.0,60,0.00,,,0.00,0,Wunderground v.1.15,2016-02-14 17:54:00,
2016-02-14 13:04:00,15.7,4.3,30.34,ESE,121,6.0,6.0,60,0.00,,,0.00,0,Wunderground v.1.15,2016-02-14 18:04:00,
2016-02-14 13:09:00,16.3,4.8,30.34,SE,125,8.0,8.0,60,0.00,,,0.00,0,Wunderground v.1.15,2016-02-14 18:09:00,
2016-02-14 13:19:00,15.7,3.5,30.35,East,101,6.0,8.0,58,0.00,,,0.00,0,Wunderground v.1.15,2016-02-14 18:19:00,
2016-02-14 13:29:00,15.5,3.7,30.35,SE,125,4.0,5.0,59,0.00,,,0.00,0,Wunderground v.1.15,2016-02-14 18:29:00,
2016-02-14 13:34:00,15.2,3.4,30.35,SE,125,9.0,9.0,59,0.00,,,0.00,0,Wunderground v.1.15,2016-02-14 18:34:00,
2016-02-14 13:39:00,15.0,3.2,30.35,ESE,122,7.0,9.0,59,0.00,,,0.00,0,Wunderground v.1.15,2016-02-14 18:39:00,
2016-02-14 13:49:00,15.5,3.7,30.34,ESE,116,7.0,7.0,59,0.00,,,0.00,0,Wunderground v.1.15,2016-02-14 18:49:00,
2016-02-14 13:54:00,15.4,3.2,30.34,East,94,0.0,0.0,58,0.00,,,0.00,0,Wunderground v.1.15,2016-02-14 18:54:00,
2016-02-14 13:59:00,15.4,3.6,30.33,ESE,113,6.0,6.0,59,0.00,,,0.00,0,Wunderground v.1.15,2016-02-14 18:59:00,
2016-02-14 14:04:00,15.7,3.9,30.32,ESE,105,5.0,5.0,59,0.00,,,0.00,0,Wunderground v.1.15,2016-02-14 19:04:00,
2016-02-14 14:09:00,15.9,4.1,30.31,ESE,115,4.0,5.0,59,0.00,,,0.00,0,Wunderground v.1.15,2016-02-14 19:09:00,
2016-02-14 14:19:00,16.0,3.8,30.31,ESE,103,12.0,12.0,58,0.00,,,0.00,0,Wunderground v.1.15,2016-02-14 19:19:00,
2016-02-14 14:29:00,15.9,3.7,30.31,ESE,106,3.0,3.0,58,0.00,,,0.00,0,Wunderground v.1.15,2016-02-14 19:29:00,
2016-02-14 14:34:00,16.0,3.8,30.30,SE,134,7.0,7.0,58,0.00,,,0.00,0,Wunderground v.1.15,2016-02-14 19:34:00,
2016-02-14 14:44:00,16.2,4.0,30.31,ESE,120,7.0,7.0,58,0.00,,,0.00,0,Wunderground v.1.15,2016-02-14 19:44:00,
2016-02-14 14:49:00,16.3,4.1,30.31,SE,125,11.0,11.0,58,0.00,,,0.00,0,Wunderground v.1.15,2016-02-14 19:49:00,
2016-02-14 14:59:00,16.0,3.4,30.30,SE,130,9.0,9.0,57,0.00,,,0.00,0,Wunderground v.1.15,2016-02-14 19:59:00,
2016-02-14 15:04:00,16.0,3.4,30.29,East,98,2.0,2.0,57,0.00,,,0.00,0,Wunderground v.1.15,2016-02-14 20:04:00,
2016-02-14 15:09:00,16.0,3.4,30.30,East,81,7.0,7.0,57,0.00,,,0.00,0,Wunderground v.1.15,2016-02-14 20:09:00,
2016-02-14 15:19:00,16.2,3.6,30.30,SE,143,7.0,7.0,57,0.00,,,0.00,0,Wunderground v.1.15,2016-02-14 20:19:00,
2016-02-14 15:29:00,16.4,3.8,30.30,ESE,122,5.0,7.0,57,0.00,,,0.00,0,Wunderground v.1.15,2016-02-14 20:29:00,
2016-02-14 15:34:00,16.2,3.6,30.29,East,88,2.0,2.0,57,0.00,,,0.00,0,Wunderground v.1.15,2016-02-14 20:34:00,
2016-02-14 15:39:00,16.0,4.2,30.29,East,96,1.0,2.0,59,0.00,,,0.00,0,Wunderground v.1.15,2016-02-14 20:39:00,
2016-02-14 15:49:00,16.2,4.4,30.29,ESE,108,3.0,3.0,59,0.00,,,0.00,0,Wunderground v.1.15,2016-02-14 20:49:00,
2016-02-14 15:54:00,16.0,3.8,30.29,ESE,108,4.0,4.0,58,0.00,,,0.00,0,Wunderground v.1.15,2016-02-14 20:54:00,
2016-02-14 16:04:00,15.9,3.7,30.29,ESE,117,10.0,10.0,58,0.00,,,0.00,0,Wunderground v.1.15,2016-02-14 21:04:00,
2016-02-14 16:14:00,15.7,3.1,30.30,East,95,3.0,3.0,57,0.00,,,0.00,0,Wunderground v.1.15,2016-02-14 21:14:00,
2016-02-14 16:19:00,15.7,3.1,30.30,ESE,114,3.0,3.0,57,0.00,,,0.00,0,Wunderground v.1.15,2016-02-14 21:19:00,
2016-02-14 16:29:00,15.5,2.6,30.30,East,95,7.0,8.0,56,0.00,,,0.00,0,Wunderground v.1.15,2016-02-14 21:29:00,
2016-02-14 16:39:00,15.5,3.0,30.28,ESE,115,4.0,4.0,57,0.00,,,0.00,0,Wunderground v.1.15,2016-02-14 21:39:00,
2016-02-14 16:44:00,15.4,2.5,30.28,East,92,5.0,5.0,56,0.00,,,0.00,0,Wunderground v.1.15,2016-02-14 21:44:00,
2016-02-14 16:54:00,15.2,2.7,30.28,East,90,4.0,4.0,57,0.00,,,0.00,0,Wunderground v.1.15,2016-02-14 21:54:00,
2016-02-14 16:59:00,15.2,2.7,30.28,East,86,2.0,4.0,57,0.00,,,0.00,0,Wunderground v.1.15,2016-02-14 21:59:00,
2016-02-14 17:09:00,15.0,2.5,30.27,ESE,123,2.0,7.0,57,0.00,,,0.00,0,Wunderground v.1.15,2016-02-14 22:09:00,
2016-02-14 17:19:00,15.0,2.5,30.26,NE,56,7.0,7.0,57,0.00,,,0.00,0,Wunderground v.1.15,2016-02-14 22:19:00,
2016-02-14 17:24:00,15.0,2.5,30.27,ESE,105,8.0,8.0,57,0.00,,,0.00,0,Wunderground v.1.15,2016-02-14 22:24:00,
2016-02-14 17:29:00,15.0,2.5,30.26,ESE,108,5.0,8.0,57,0.00,,,0.00,0,Wunderground v.1.15,2016-02-14 22:29:00,